createdAt,value
2018-11-27T00:00:07.545Z,0.6
2018-11-27T00:05:34.280Z,0.6
2018-11-27T00:11:01.737Z,0.6
2018-11-27T00:16:28.542Z,0.6
2018-11-27T00:21:51.904Z,0.6
2018-11-27T00:27:19.758Z,0.6
2018-11-27T00:32:52.909Z,0.5
2018-11-27T00:38:21.006Z,0.6
2018-11-27T00:43:43.173Z,0.6
2018-11-27T00:49:11.278Z,0.6
2018-11-27T00:54:39.560Z,0.6
2018-11-27T01:00:06.835Z,0.7
2018-11-27T01:05:33.653Z,0.6
2018-11-27T01:11:02.048Z,0.6
2018-11-27T01:16:28.934Z,0.7
2018-11-27T01:21:56.039Z,0.7
2018-11-27T01:27:24.497Z,0.7
2018-11-27T01:32:51.354Z,0.8
2018-11-27T01:38:18.778Z,0.8
2018-11-27T01:43:46.925Z,0.8
2018-11-27T01:49:13.786Z,0.9
2018-11-27T01:54:41.985Z,0.9
2018-11-27T02:00:10.491Z,0.8
2018-11-27T02:05:37.251Z,0.8
2018-11-27T02:11:09.427Z,0.7
2018-11-27T02:16:32.776Z,0.6
2018-11-27T02:22:05.688Z,0.5
2018-11-27T02:27:29.020Z,0.4
2018-11-27T02:32:57.272Z,0.4
2018-11-27T02:38:24.973Z,0.3
2018-11-27T02:43:53.086Z,0.3
2018-11-27T02:49:21.749Z,0.3
2018-11-27T02:54:48.257Z,0.2
2018-11-27T03:00:20.716Z,0.2
2018-11-27T03:05:47.757Z,0.2
2018-11-27T03:11:09.549Z,0.2
2018-11-27T03:16:36.672Z,0.2
2018-11-27T03:22:09.794Z,0.2
2018-11-27T03:27:32.867Z,0.2
2018-11-27T03:33:01.131Z,0.3
2018-11-27T03:38:33.142Z,0.3
2018-11-27T03:44:02.693Z,0.3
2018-11-27T03:49:23.568Z,0.3
2018-11-27T03:54:50.472Z,0.3
2018-11-27T04:00:22.530Z,0.4
2018-11-27T04:05:49.930Z,0.4
2018-11-27T04:11:12.409Z,0.4
2018-11-27T04:16:39.944Z,0.3
2018-11-27T04:22:08.241Z,0.3
2018-11-27T04:27:41.066Z,0.3
2018-11-27T04:33:04.188Z,0.3
2018-11-27T04:38:31.274Z,0.3
2018-11-27T04:43:58.396Z,0.3
2018-11-27T04:49:25.648Z,0.3
2018-11-27T04:54:52.559Z,0.3
2018-11-27T05:00:25.841Z,0.4
2018-11-27T05:05:48.812Z,0.4
2018-11-27T05:11:16.929Z,0.5
2018-11-27T05:16:49.613Z,0.5
2018-11-27T05:22:12.431Z,0.4
2018-11-27T05:27:39.278Z,0.4
2018-11-27T05:33:11.662Z,0.4
2018-11-27T05:38:38.659Z,0.4
2018-11-27T05:44:01.635Z,0.5
2018-11-27T05:49:30.026Z,0.6
2018-11-27T05:55:01.926Z,0.6
2018-11-27T06:00:25.275Z,0.7
2018-11-27T06:05:57.159Z,0.7
2018-11-27T06:11:19.258Z,0.7
2018-11-27T06:16:52.457Z,0.7
2018-11-27T06:22:14.514Z,0.6
2018-11-27T06:27:41.904Z,0.6
2018-11-27T06:33:09.763Z,0.6
2018-11-27T06:38:42.945Z,0.7
2018-11-27T06:44:05.019Z,0.6
2018-11-27T06:49:37.465Z,0.6
2018-11-27T07:11:22.682Z,0.7
2018-11-27T07:16:56.143Z,0.7
2018-11-27T07:22:17.967Z,0.8
2018-11-27T07:27:50.384Z,0.8
2018-11-27T07:33:13.238Z,0.8
2018-11-27T07:38:41.376Z,0.8
2018-11-27T07:44:13.532Z,0.8
2018-11-27T07:49:40.984Z,0.9
2018-11-27T07:55:03.123Z,0.9
2018-11-27T08:00:35.994Z,0.9
2018-11-27T08:05:58.109Z,0.9
2018-11-27T08:11:25.513Z,1
2018-11-27T08:16:53.492Z,1
2018-11-27T08:22:21.587Z,1.1
2018-11-27T08:27:48.748Z,1.1
2018-11-27T08:33:17.227Z,1.1
2018-11-27T08:38:45.575Z,1.2
2018-11-27T08:44:12.278Z,1.3
2018-11-27T08:49:45.442Z,1.4
2018-11-27T08:55:07.649Z,1.4
2018-11-27T09:00:40.835Z,1.5
2018-11-27T09:06:04.006Z,1.5
2018-11-27T09:11:31.221Z,1.5
2018-11-27T09:16:58.382Z,1.5
2018-11-27T09:22:31.012Z,1.6
2018-11-27T09:27:53.090Z,1.6
2018-11-27T09:33:20.018Z,1.6
2018-11-27T09:38:48.218Z,1.6
2018-11-27T09:44:16.394Z,1.6
2018-11-27T09:49:44.626Z,1.7
2018-11-27T09:55:16.850Z,1.7
2018-11-27T10:00:40.009Z,1.8
2018-11-27T10:06:08.216Z,1.9
2018-11-27T10:11:40.465Z,2
2018-11-27T10:17:02.615Z,2
2018-11-27T10:22:30.879Z,2
2018-11-27T10:27:58.131Z,2.1
2018-11-27T10:33:30.443Z,2.1
2018-11-27T10:38:53.551Z,2.2
2018-11-27T10:44:26.879Z,2.2
2018-11-27T10:49:50.220Z,2.3
2018-11-27T10:55:23.434Z,2.3
2018-11-27T11:00:46.694Z,2.2
2018-11-27T11:06:13.863Z,2.2
2018-11-27T11:11:42.087Z,2.2
2018-11-27T11:17:10.257Z,2.2
2018-11-27T11:22:41.611Z,2.2
2018-11-27T11:28:03.826Z,2.2
2018-11-27T11:33:32.079Z,2.3
2018-11-27T11:38:59.369Z,2.4
2018-11-27T11:44:31.788Z,2.5
2018-11-27T11:49:58.935Z,2.5
2018-11-27T11:55:22.353Z,2.6
2018-11-27T12:00:49.597Z,2.7
2018-11-27T12:06:17.933Z,2.7
2018-11-27T12:11:50.191Z,2.7
2018-11-27T12:17:17.346Z,2.8
2018-11-27T12:22:45.842Z,2.7
2018-11-27T12:28:14.273Z,2.7
2018-11-27T12:33:37.326Z,2.6
2018-11-27T12:39:09.534Z,2.6
2018-11-27T12:44:37.028Z,2.6
2018-11-27T12:49:59.150Z,2.5
2018-11-27T12:55:27.402Z,2.5
2018-11-27T13:00:55.759Z,2.5
2018-11-27T13:06:27.749Z,2.5
2018-11-27T13:11:56.329Z,2.5
2018-11-27T13:17:19.652Z,2.5
2018-11-27T13:22:47.918Z,2.5
2018-11-27T13:28:15.058Z,2.5
2018-11-27T13:33:43.337Z,2.5
2018-11-27T13:39:10.653Z,2.5
2018-11-27T13:44:42.875Z,2.4
2018-11-27T13:50:05.172Z,2.4
2018-11-27T13:55:32.441Z,2.4
2018-11-27T14:00:59.683Z,2.4
2018-11-27T14:06:27.989Z,2.3
2018-11-27T14:11:56.198Z,2.3
2018-11-27T14:17:23.466Z,2.3
2018-11-27T14:22:55.861Z,2.3
2018-11-27T14:28:18.037Z,2.3
2018-11-27T14:33:45.294Z,2.3
2018-11-27T14:39:12.444Z,2.2
2018-11-27T14:44:39.747Z,2.2
2018-11-27T14:50:08.052Z,2.2
2018-11-27T14:55:36.111Z,2.2
2018-11-27T15:01:03.583Z,2.2
2018-11-27T15:06:31.812Z,2.1
2018-11-27T15:12:04.992Z,2.1
2018-11-27T15:17:28.227Z,2.1
2018-11-27T15:22:55.383Z,2
2018-11-27T15:28:23.593Z,1.9
2018-11-27T15:33:50.821Z,1.8
2018-11-27T15:39:19.146Z,1.7
2018-11-27T15:44:47.217Z,1.7
2018-11-27T15:50:14.663Z,1.6
2018-11-27T15:55:41.775Z,1.6
2018-11-27T16:01:14.834Z,1.6
2018-11-27T16:06:37.050Z,1.6
2018-11-27T16:12:09.338Z,1.5
2018-11-27T16:17:37.493Z,1.5
2018-11-27T16:23:00.702Z,1.5
2018-11-27T16:28:28.878Z,1.5
2018-11-27T16:33:56.139Z,1.5
2018-11-27T16:44:50.512Z,1.6
2018-11-27T16:50:17.732Z,1.6
2018-11-27T16:55:50.886Z,1.6
2018-11-27T17:01:13.095Z,1.6
2018-11-27T17:06:41.171Z,1.6
2018-11-27T17:12:09.397Z,1.6
2018-11-27T17:17:36.659Z,1.6
2018-11-27T17:23:03.961Z,1.7
2018-11-27T17:28:32.137Z,1.7
2018-11-27T17:34:05.242Z,1.7
2018-11-27T17:39:28.410Z,1.7
2018-11-27T17:44:55.807Z,1.7
2018-11-27T17:50:22.951Z,1.7
2018-11-27T17:55:56.149Z,1.8
2018-11-27T18:01:24.387Z,1.8
2018-11-27T18:06:46.533Z,1.8
2018-11-27T18:12:18.986Z,1.8
2018-11-27T18:17:42.268Z,1.8
2018-11-27T18:23:10.908Z,1.8
2018-11-27T18:28:37.383Z,1.8
2018-11-27T18:34:10.648Z,1.8
2018-11-27T18:39:33.067Z,1.8
2018-11-27T18:45:00.061Z,1.8
2018-11-27T18:50:27.213Z,1.8
2018-11-27T18:55:55.777Z,1.8
2018-11-27T19:01:23.959Z,1.8
2018-11-27T19:06:51.190Z,1.8
2018-11-27T19:12:23.459Z,1.8
2018-11-27T19:17:45.388Z,1.8
2018-11-27T19:23:12.596Z,1.9
2018-11-27T19:28:46.167Z,1.9
2018-11-27T19:34:09.299Z,1.9
2018-11-27T19:39:36.656Z,2
2018-11-27T19:45:09.954Z,2
2018-11-27T19:50:31.797Z,2
2018-11-27T19:56:04.095Z,2
2018-11-27T20:01:26.292Z,2
2018-11-27T20:06:53.771Z,2
2018-11-27T20:12:25.767Z,2
2018-11-27T20:17:49.239Z,1.9
2018-11-27T20:23:16.266Z,1.9
2018-11-27T20:28:43.445Z,1.9
2018-11-27T20:34:10.925Z,1.8
2018-11-27T20:39:38.162Z,1.8
2018-11-27T20:45:05.120Z,1.8
2018-11-27T20:50:33.781Z,1.8
2018-11-27T20:56:00.576Z,1.8
2018-11-27T21:01:27.772Z,1.8
2018-11-27T21:06:55.255Z,1.8
2018-11-27T21:12:23.206Z,1.8
2018-11-27T21:17:50.425Z,1.8
2018-11-27T21:23:17.941Z,1.8
2018-11-27T21:28:46.171Z,1.8
2018-11-27T21:34:14.076Z,1.8
2018-11-27T21:39:42.645Z,1.8
2018-11-27T21:45:15.858Z,1.8
2018-11-27T21:50:38.809Z,1.8
2018-11-27T21:56:07.526Z,1.8
2018-11-27T22:01:34.601Z,1.7
2018-11-27T22:07:02.705Z,1.8
2018-11-27T22:12:29.642Z,1.8
2018-11-27T22:18:03.135Z,1.7
2018-11-27T22:23:26.314Z,1.7
2018-11-27T22:28:58.678Z,1.7
2018-11-27T22:34:25.788Z,1.7
2018-11-27T22:39:48.990Z,1.7
2018-11-27T22:45:16.206Z,1.7
2018-11-27T22:50:43.516Z,1.7
2018-11-27T22:56:10.436Z,1.6
2018-11-27T23:01:38.838Z,1.6
2018-11-27T23:07:06.032Z,1.6
2018-11-27T23:12:39.385Z,1.6
2018-11-27T23:19:03.074Z,1.6
2018-11-27T23:23:29.462Z,1.6
2018-11-27T23:28:57.615Z,1.6
2018-11-27T23:34:30.136Z,1.6
2018-11-27T23:39:58.339Z,1.6
2018-11-27T23:45:26.532Z,1.6
2018-11-27T23:50:54.807Z,1.6
2018-11-27T23:56:16.657Z,1.6
